sensor_id;sensor_type;location;lat;lon;timestamp;P1;durP1;ratioP1;P2;durP2;ratioP2
3589;SDS011;1809;48.470;9.226;2023-04-01T00:01:03;0.90;;;0.50;;
3589;SDS011;1809;48.470;9.226;2023-04-01T00:03:29;2.40;;;0.53;;
3589;SDS011;1809;48.470;9.226;2023-04-01T00:05:56;1.13;;;0.50;;
3589;SDS011;1809;48.470;9.226;2023-04-01T00:08:23;0.93;;;0.50;;
3589;SDS011;1809;48.470;9.226;2023-04-01T00:10:50;0.90;;;0.50;;
3589;SDS011;1809;48.470;9.226;2023-04-01T00:13:15;0.60;;;0.60;;
3589;SDS011;1809;48.470;9.226;2023-04-01T00:15:41;0.60;;;0.50;;
3589;SDS011;1809;48.470;9.226;2023-04-01T00:18:07;0.80;;;0.63;;
3589;SDS011;1809;48.470;9.226;2023-04-01T00:20:33;2.33;;;0.70;;
3589;SDS011;1809;48.470;9.226;2023-04-01T00:22:59;2.20;;;0.50;;
3589;SDS011;1809;48.470;9.226;2023-04-01T00:25:24;1.47;;;0.83;;
3589;SDS011;1809;48.470;9.226;2023-04-01T00:27:50;0.60;;;0.60;;
3589;SDS011;1809;48.470;9.226;2023-04-01T00:30:15;2.10;;;0.50;;
3589;SDS011;1809;48.470;9.226;2023-04-01T00:32:42;0.80;;;0.57;;
3589;SDS011;1809;48.470;9.226;2023-04-01T00:35:08;1.37;;;0.50;;
3589;SDS011;1809;48.470;9.226;2023-04-01T00:37:36;0.73;;;0.50;;
3589;SDS011;1809;48.470;9.226;2023-04-01T00:40:03;0.77;;;0.77;;
3589;SDS011;1809;48.470;9.226;2023-04-01T00:42:30;1.47;;;0.50;;
3589;SDS011;1809;48.470;9.226;2023-04-01T00:44:56;5.80;;;0.90;;
3589;SDS011;1809;48.470;9.226;2023-04-01T00:47:22;1.40;;;0.90;;
3589;SDS011;1809;48.470;9.226;2023-04-01T00:49:50;1.10;;;0.90;;
3589;SDS011;1809;48.470;9.226;2023-04-01T00:52:19;0.50;;;0.50;;
3589;SDS011;1809;48.470;9.226;2023-04-01T00:54:47;2.20;;;0.70;;
3589;SDS011;1809;48.470;9.226;2023-04-01T00:57:23;0.60;;;0.50;;
3589;SDS011;1809;48.470;9.226;2023-04-01T00:59:54;0.50;;;0.50;;
3589;SDS011;1809;48.470;9.226;2023-04-01T01:02:21;0.77;;;0.50;;
3589;SDS011;1809;48.470;9.226;2023-04-01T01:04:47;0.77;;;0.50;;
3589;SDS011;1809;48.470;9.226;2023-04-01T01:10:06;2.70;;;0.60;;
3589;SDS011;1809;48.470;9.226;2023-04-01T01:12:37;0.90;;;0.70;;
3589;SDS011;1809;48.470;9.226;2023-04-01T01:15:19;2.70;;;0.50;;
3589;SDS011;1809;48.470;9.226;2023-04-01T01:20:52;0.70;;;0.50;;
3589;SDS011;1809;48.470;9.226;2023-04-01T01:31:50;0.83;;;0.47;;
3589;SDS011;1809;48.470;9.226;2023-04-01T01:34:22;0.50;;;0.50;;
3589;SDS011;1809;48.470;9.226;2023-04-01T01:36:55;1.43;;;0.50;;
3589;SDS011;1809;48.470;9.226;2023-04-01T01:39:26;0.50;;;0.50;;
3589;SDS011;1809;48.470;9.226;2023-04-01T01:41:56;0.50;;;0.40;;
3589;SDS011;1809;48.470;9.226;2023-04-01T01:44:25;1.60;;;0.40;;
3589;SDS011;1809;48.470;9.226;2023-04-01T01:46:56;0.40;;;0.40;;
3589;SDS011;1809;48.470;9.226;2023-04-01T01:49:22;0.60;;;0.40;;
3589;SDS011;1809;48.470;9.226;2023-04-01T01:51:49;0.50;;;0.40;;
3589;SDS011;1809;48.470;9.226;2023-04-01T01:54:16;0.40;;;0.40;;
3589;SDS011;1809;48.470;9.226;2023-04-01T01:56:43;0.90;;;0.50;;
3589;SDS011;1809;48.470;9.226;2023-04-01T01:59:13;0.70;;;0.50;;
3589;SDS011;1809;48.470;9.226;2023-04-01T02:01:42;0.50;;;0.40;;
3589;SDS011;1809;48.470;9.226;2023-04-01T02:04:11;0.80;;;0.50;;
3589;SDS011;1809;48.470;9.226;2023-04-01T02:06:41;1.17;;;0.40;;
3589;SDS011;1809;48.470;9.226;2023-04-01T02:09:18;0.40;;;0.40;;
3589;SDS011;1809;48.470;9.226;2023-04-01T02:11:49;0.50;;;0.40;;
3589;SDS011;1809;48.470;9.226;2023-04-01T02:14:21;0.50;;;0.40;;
3589;SDS011;1809;48.470;9.226;2023-04-01T02:16:54;1.83;;;0.40;;
3589;SDS011;1809;48.470;9.226;2023-04-01T02:19:44;1.73;;;0.40;;
3589;SDS011;1809;48.470;9.226;2023-04-01T02:22:32;0.50;;;0.40;;
3589;SDS011;1809;48.470;9.226;2023-04-01T02:25:04;0.60;;;0.40;;
3589;SDS011;1809;48.470;9.226;2023-04-01T02:27:36;0.70;;;0.40;;
3589;SDS011;1809;48.470;9.226;2023-04-01T02:30:03;0.60;;;0.40;;
3589;SDS011;1809;48.470;9.226;2023-04-01T02:32:29;0.70;;;0.50;;
3589;SDS011;1809;48.470;9.226;2023-04-01T02:34:56;0.93;;;0.50;;
3589;SDS011;1809;48.470;9.226;2023-04-01T02:37:22;0.40;;;0.40;;
3589;SDS011;1809;48.470;9.226;2023-04-01T02:39:48;0.63;;;0.40;;
3589;SDS011;1809;48.470;9.226;2023-04-01T02:42:13;0.93;;;0.50;;
3589;SDS011;1809;48.470;9.226;2023-04-01T02:44:39;0.90;;;0.53;;
3589;SDS011;1809;48.470;9.226;2023-04-01T02:47:05;0.50;;;0.40;;
3589;SDS011;1809;48.470;9.226;2023-04-01T02:49:30;0.87;;;0.40;;
3589;SDS011;1809;48.470;9.226;2023-04-01T02:51:56;1.03;;;0.50;;
3589;SDS011;1809;48.470;9.226;2023-04-01T02:54:21;0.43;;;0.40;;
3589;SDS011;1809;48.470;9.226;2023-04-01T02:56:46;0.70;;;0.40;;
3589;SDS011;1809;48.470;9.226;2023-04-01T02:59:11;0.50;;;0.43;;
3589;SDS011;1809;48.470;9.226;2023-04-01T03:01:37;1.63;;;0.40;;
3589;SDS011;1809;48.470;9.226;2023-04-01T03:04:03;0.50;;;0.40;;
3589;SDS011;1809;48.470;9.226;2023-04-01T03:06:28;0.40;;;0.40;;
3589;SDS011;1809;48.470;9.226;2023-04-01T03:08:54;0.50;;;0.40;;
3589;SDS011;1809;48.470;9.226;2023-04-01T03:11:20;0.40;;;0.40;;
3589;SDS011;1809;48.470;9.226;2023-04-01T03:13:46;3.17;;;0.50;;
3589;SDS011;1809;48.470;9.226;2023-04-01T03:16:11;0.40;;;0.40;;
3589;SDS011;1809;48.470;9.226;2023-04-01T03:18:36;0.40;;;0.30;;
3589;SDS011;1809;48.470;9.226;2023-04-01T03:23:40;0.40;;;0.40;;
3589;SDS011;1809;48.470;9.226;2023-04-01T03:26:06;0.47;;;0.40;;
3589;SDS011;1809;48.470;9.226;2023-04-01T03:28:31;0.60;;;0.40;;
3589;SDS011;1809;48.470;9.226;2023-04-01T03:30:56;0.40;;;0.40;;
3589;SDS011;1809;48.470;9.226;2023-04-01T03:33:22;0.40;;;0.40;;
3589;SDS011;1809;48.470;9.226;2023-04-01T03:35:47;0.40;;;0.40;;
3589;SDS011;1809;48.470;9.226;2023-04-01T03:38:12;0.50;;;0.50;;
3589;SDS011;1809;48.470;9.226;2023-04-01T03:40:41;0.50;;;0.50;;
3589;SDS011;1809;48.470;9.226;2023-04-01T03:43:07;0.40;;;0.40;;
3589;SDS011;1809;48.470;9.226;2023-04-01T03:45:34;1.33;;;0.50;;
3589;SDS011;1809;48.470;9.226;2023-04-01T03:48:00;0.40;;;0.40;;
3589;SDS011;1809;48.470;9.226;2023-04-01T03:50:25;0.40;;;0.40;;
3589;SDS011;1809;48.470;9.226;2023-04-01T03:52:51;1.17;;;0.47;;
3589;SDS011;1809;48.470;9.226;2023-04-01T03:55:16;1.27;;;0.40;;
3589;SDS011;1809;48.470;9.226;2023-04-01T03:57:43;1.37;;;0.40;;
3589;SDS011;1809;48.470;9.226;2023-04-01T04:00:08;0.50;;;0.40;;
3589;SDS011;1809;48.470;9.226;2023-04-01T04:02:34;1.03;;;0.50;;
3589;SDS011;1809;48.470;9.226;2023-04-01T04:05:00;0.50;;;0.50;;
3589;SDS011;1809;48.470;9.226;2023-04-01T04:07:26;1.00;;;0.50;;
3589;SDS011;1809;48.470;9.226;2023-04-01T04:09:51;1.80;;;0.60;;
3589;SDS011;1809;48.470;9.226;2023-04-01T04:12:16;2.07;;;0.47;;
3589;SDS011;1809;48.470;9.226;2023-04-01T04:14:41;1.40;;;0.50;;
3589;SDS011;1809;48.470;9.226;2023-04-01T04:17:09;3.43;;;0.77;;
3589;SDS011;1809;48.470;9.226;2023-04-01T04:19:38;2.53;;;1.00;;
3589;SDS011;1809;48.470;9.226;2023-04-01T04:22:04;1.30;;;0.50;;
3589;SDS011;1809;48.470;9.226;2023-04-01T04:24:29;0.50;;;0.50;;
3589;SDS011;1809;48.470;9.226;2023-04-01T04:26:54;1.00;;;0.70;;
3589;SDS011;1809;48.470;9.226;2023-04-01T04:29:20;0.70;;;0.60;;
3589;SDS011;1809;48.470;9.226;2023-04-01T04:31:45;1.83;;;0.70;;
3589;SDS011;1809;48.470;9.226;2023-04-01T04:34:11;0.80;;;0.50;;
3589;SDS011;1809;48.470;9.226;2023-04-01T04:36:36;2.83;;;0.70;;
3589;SDS011;1809;48.470;9.226;2023-04-01T04:39:01;1.17;;;0.90;;
3589;SDS011;1809;48.470;9.226;2023-04-01T04:41:28;0.90;;;0.53;;
3589;SDS011;1809;48.470;9.226;2023-04-01T04:43:54;1.00;;;0.50;;
3589;SDS011;1809;48.470;9.226;2023-04-01T04:46:21;0.70;;;0.50;;
3589;SDS011;1809;48.470;9.226;2023-04-01T04:48:47;0.40;;;0.40;;
3589;SDS011;1809;48.470;9.226;2023-04-01T04:51:14;1.67;;;0.53;;
3589;SDS011;1809;48.470;9.226;2023-04-01T04:53:40;0.53;;;0.53;;
3589;SDS011;1809;48.470;9.226;2023-04-01T04:56:06;1.30;;;0.50;;
3589;SDS011;1809;48.470;9.226;2023-04-01T04:58:31;1.03;;;0.40;;
3589;SDS011;1809;48.470;9.226;2023-04-01T05:00:57;1.33;;;0.50;;
3589;SDS011;1809;48.470;9.226;2023-04-01T05:03:22;0.80;;;0.50;;
3589;SDS011;1809;48.470;9.226;2023-04-01T05:05:49;0.70;;;0.50;;
3589;SDS011;1809;48.470;9.226;2023-04-01T05:08:16;0.50;;;0.50;;
3589;SDS011;1809;48.470;9.226;2023-04-01T05:10:43;0.43;;;0.40;;
3589;SDS011;1809;48.470;9.226;2023-04-01T05:13:08;0.80;;;0.50;;
3589;SDS011;1809;48.470;9.226;2023-04-01T05:15:34;2.00;;;0.50;;
3589;SDS011;1809;48.470;9.226;2023-04-01T05:18:00;0.50;;;0.50;;
3589;SDS011;1809;48.470;9.226;2023-04-01T05:20:26;5.97;;;0.40;;
3589;SDS011;1809;48.470;9.226;2023-04-01T05:22:55;1.27;;;0.80;;
3589;SDS011;1809;48.470;9.226;2023-04-01T05:25:21;0.50;;;0.50;;
3589;SDS011;1809;48.470;9.226;2023-04-01T05:27:47;0.93;;;0.50;;
3589;SDS011;1809;48.470;9.226;2023-04-01T05:30:12;0.70;;;0.50;;
3589;SDS011;1809;48.470;9.226;2023-04-01T05:32:38;0.70;;;0.60;;
3589;SDS011;1809;48.470;9.226;2023-04-01T05:35:04;0.70;;;0.40;;
3589;SDS011;1809;48.470;9.226;2023-04-01T05:37:30;0.60;;;0.60;;
3589;SDS011;1809;48.470;9.226;2023-04-01T05:39:56;2.10;;;0.60;;
3589;SDS011;1809;48.470;9.226;2023-04-01T05:42:23;0.40;;;0.40;;
3589;SDS011;1809;48.470;9.226;2023-04-01T05:44:50;0.50;;;0.40;;
3589;SDS011;1809;48.470;9.226;2023-04-01T05:47:15;0.70;;;0.50;;
3589;SDS011;1809;48.470;9.226;2023-04-01T05:49:41;1.10;;;0.57;;
3589;SDS011;1809;48.470;9.226;2023-04-01T05:52:06;3.53;;;0.67;;
3589;SDS011;1809;48.470;9.226;2023-04-01T05:54:32;0.60;;;0.60;;
3589;SDS011;1809;48.470;9.226;2023-04-01T05:56:58;2.30;;;0.60;;
3589;SDS011;1809;48.470;9.226;2023-04-01T05:59:24;0.93;;;0.53;;
3589;SDS011;1809;48.470;9.226;2023-04-01T06:01:49;1.90;;;0.50;;
3589;SDS011;1809;48.470;9.226;2023-04-01T06:04:16;8.63;;;0.70;;
3589;SDS011;1809;48.470;9.226;2023-04-01T06:06:42;1.17;;;0.60;;
3589;SDS011;1809;48.470;9.226;2023-04-01T06:09:15;1.00;;;0.60;;
3589;SDS011;1809;48.470;9.226;2023-04-01T06:12:08;2.40;;;0.57;;
3589;SDS011;1809;48.470;9.226;2023-04-01T06:23:26;0.47;;;0.40;;
3589;SDS011;1809;48.470;9.226;2023-04-01T06:31:47;1.07;;;1.07;;
3589;SDS011;1809;48.470;9.226;2023-04-01T06:34:26;0.60;;;0.50;;
3589;SDS011;1809;48.470;9.226;2023-04-01T06:39:54;1.67;;;0.60;;
3589;SDS011;1809;48.470;9.226;2023-04-01T06:42:45;3.40;;;0.60;;
3589;SDS011;1809;48.470;9.226;2023-04-01T06:50:29;0.50;;;0.40;;
3589;SDS011;1809;48.470;9.226;2023-04-01T06:56:08;0.70;;;0.70;;
3589;SDS011;1809;48.470;9.226;2023-04-01T06:58:44;1.17;;;1.00;;
3589;SDS011;1809;48.470;9.226;2023-04-01T07:04:06;0.60;;;0.60;;
3589;SDS011;1809;48.470;9.226;2023-04-01T07:09:55;3.50;;;0.67;;
3589;SDS011;1809;48.470;9.226;2023-04-01T07:14:57;0.50;;;0.50;;
3589;SDS011;1809;48.470;9.226;2023-04-01T07:17:30;2.00;;;0.50;;
3589;SDS011;1809;48.470;9.226;2023-04-01T07:22:46;0.60;;;0.50;;
3589;SDS011;1809;48.470;9.226;2023-04-01T07:25:15;1.50;;;0.57;;
3589;SDS011;1809;48.470;9.226;2023-04-01T07:27:44;3.43;;;0.60;;
3589;SDS011;1809;48.470;9.226;2023-04-01T07:30:15;0.50;;;0.50;;
3589;SDS011;1809;48.470;9.226;2023-04-01T07:33:26;2.43;;;0.67;;
3589;SDS011;1809;48.470;9.226;2023-04-01T07:41:34;1.37;;;0.77;;
3589;SDS011;1809;48.470;9.226;2023-04-01T07:47:15;0.57;;;0.50;;
3589;SDS011;1809;48.470;9.226;2023-04-01T07:50:28;0.90;;;0.60;;
3589;SDS011;1809;48.470;9.226;2023-04-01T07:53:08;0.50;;;0.50;;
3589;SDS011;1809;48.470;9.226;2023-04-01T07:58:36;0.83;;;0.40;;
3589;SDS011;1809;48.470;9.226;2023-04-01T08:12:53;1.17;;;0.50;;
3589;SDS011;1809;48.470;9.226;2023-04-01T08:15:47;0.50;;;0.50;;
3589;SDS011;1809;48.470;9.226;2023-04-01T08:18:26;0.60;;;0.50;;
3589;SDS011;1809;48.470;9.226;2023-04-01T08:21:02;0.40;;;0.40;;
3589;SDS011;1809;48.470;9.226;2023-04-01T08:23:46;1.00;;;0.60;;
3589;SDS011;1809;48.470;9.226;2023-04-01T08:26:25;0.60;;;0.40;;
3589;SDS011;1809;48.470;9.226;2023-04-01T08:28:59;0.40;;;0.40;;
3589;SDS011;1809;48.470;9.226;2023-04-01T08:34:15;0.60;;;0.43;;
3589;SDS011;1809;48.470;9.226;2023-04-01T08:36:50;0.50;;;0.50;;
3589;SDS011;1809;48.470;9.226;2023-04-01T08:39:32;0.40;;;0.40;;
3589;SDS011;1809;48.470;9.226;2023-04-01T08:42:11;0.50;;;0.50;;
3589;SDS011;1809;48.470;9.226;2023-04-01T09:01:56;0.50;;;0.40;;
3589;SDS011;1809;48.470;9.226;2023-04-01T09:18:24;0.40;;;0.40;;
3589;SDS011;1809;48.470;9.226;2023-04-01T09:21:04;0.90;;;0.53;;
3589;SDS011;1809;48.470;9.226;2023-04-01T09:23:54;0.40;;;0.30;;
3589;SDS011;1809;48.470;9.226;2023-04-01T09:26:58;0.67;;;0.50;;
3589;SDS011;1809;48.470;9.226;2023-04-01T09:38:20;0.60;;;0.60;;
3589;SDS011;1809;48.470;9.226;2023-04-01T09:57:50;0.47;;;0.43;;
3589;SDS011;1809;48.470;9.226;2023-04-01T10:14:50;0.50;;;0.40;;
3589;SDS011;1809;48.470;9.226;2023-04-01T10:31:42;0.47;;;0.40;;
3589;SDS011;1809;48.470;9.226;2023-04-01T10:37:45;0.50;;;0.40;;
3589;SDS011;1809;48.470;9.226;2023-04-01T10:40:45;0.50;;;0.50;;
3589;SDS011;1809;48.470;9.226;2023-04-01T11:01:07;0.50;;;0.50;;
3589;SDS011;1809;48.470;9.226;2023-04-01T11:17:35;0.40;;;0.40;;
3589;SDS011;1809;48.470;9.226;2023-04-01T11:23:33;0.50;;;0.50;;
3589;SDS011;1809;48.470;9.226;2023-04-01T11:26:31;0.50;;;0.50;;
3589;SDS011;1809;48.470;9.226;2023-04-01T11:32:25;0.50;;;0.50;;
3589;SDS011;1809;48.470;9.226;2023-04-01T11:34:56;0.50;;;0.40;;
3589;SDS011;1809;48.470;9.226;2023-04-01T11:37:37;0.50;;;0.50;;
3589;SDS011;1809;48.470;9.226;2023-04-01T11:42:48;1.73;;;0.50;;
3589;SDS011;1809;48.470;9.226;2023-04-01T11:45:27;0.50;;;0.50;;
3589;SDS011;1809;48.470;9.226;2023-04-01T11:50:57;0.50;;;0.50;;
3589;SDS011;1809;48.470;9.226;2023-04-01T11:56:09;0.93;;;0.80;;
3589;SDS011;1809;48.470;9.226;2023-04-01T11:58:59;0.40;;;0.40;;
3589;SDS011;1809;48.470;9.226;2023-04-01T12:21:22;0.60;;;0.50;;
3589;SDS011;1809;48.470;9.226;2023-04-01T12:26:30;1.00;;;0.53;;
3589;SDS011;1809;48.470;9.226;2023-04-01T12:29:27;2.50;;;0.60;;
3589;SDS011;1809;48.470;9.226;2023-04-01T12:35:34;0.60;;;0.60;;
3589;SDS011;1809;48.470;9.226;2023-04-01T12:41:51;1.13;;;0.60;;
3589;SDS011;1809;48.470;9.226;2023-04-01T13:08:52;0.50;;;0.50;;
3589;SDS011;1809;48.470;9.226;2023-04-01T13:11:32;0.60;;;0.60;;
3589;SDS011;1809;48.470;9.226;2023-04-01T13:16:54;3.23;;;0.50;;
3589;SDS011;1809;48.470;9.226;2023-04-01T13:25:24;0.50;;;0.50;;
3589;SDS011;1809;48.470;9.226;2023-04-01T13:28:12;0.50;;;0.50;;
3589;SDS011;1809;48.470;9.226;2023-04-01T13:30:50;0.40;;;0.40;;
3589;SDS011;1809;48.470;9.226;2023-04-01T13:33:41;0.50;;;0.50;;
3589;SDS011;1809;48.470;9.226;2023-04-01T13:42:13;0.60;;;0.60;;
3589;SDS011;1809;48.470;9.226;2023-04-01T13:44:59;0.97;;;0.90;;
3589;SDS011;1809;48.470;9.226;2023-04-01T13:56:08;0.80;;;0.70;;
3589;SDS011;1809;48.470;9.226;2023-04-01T13:59:25;0.60;;;0.53;;
3589;SDS011;1809;48.470;9.226;2023-04-01T14:06:49;3.03;;;1.80;;
3589;SDS011;1809;48.470;9.226;2023-04-01T14:15:19;0.70;;;0.70;;
3589;SDS011;1809;48.470;9.226;2023-04-01T14:18:11;0.60;;;0.60;;
3589;SDS011;1809;48.470;9.226;2023-04-01T14:35:37;0.50;;;0.50;;
3589;SDS011;1809;48.470;9.226;2023-04-01T14:38:18;0.80;;;0.60;;
3589;SDS011;1809;48.470;9.226;2023-04-01T14:49:20;0.63;;;0.63;;
3589;SDS011;1809;48.470;9.226;2023-04-01T14:51:49;0.70;;;0.67;;
3589;SDS011;1809;48.470;9.226;2023-04-01T14:54:36;1.37;;;0.90;;
3589;SDS011;1809;48.470;9.226;2023-04-01T14:57:10;0.90;;;0.90;;
3589;SDS011;1809;48.470;9.226;2023-04-01T15:00:14;0.60;;;0.60;;
3589;SDS011;1809;48.470;9.226;2023-04-01T15:05:47;2.20;;;0.60;;
3589;SDS011;1809;48.470;9.226;2023-04-01T15:08:29;2.60;;;0.53;;
3589;SDS011;1809;48.470;9.226;2023-04-01T15:10:59;0.63;;;0.60;;
3589;SDS011;1809;48.470;9.226;2023-04-01T15:21:10;1.70;;;0.70;;
3589;SDS011;1809;48.470;9.226;2023-04-01T15:23:45;0.80;;;0.80;;
3589;SDS011;1809;48.470;9.226;2023-04-01T15:31:50;1.30;;;0.80;;
3589;SDS011;1809;48.470;9.226;2023-04-01T15:39:55;0.70;;;0.70;;
3589;SDS011;1809;48.470;9.226;2023-04-01T15:45:25;1.00;;;0.90;;
3589;SDS011;1809;48.470;9.226;2023-04-01T15:48:02;1.13;;;0.87;;
3589;SDS011;1809;48.470;9.226;2023-04-01T15:53:35;1.00;;;0.90;;
3589;SDS011;1809;48.470;9.226;2023-04-01T15:56:14;4.23;;;2.70;;
3589;SDS011;1809;48.470;9.226;2023-04-01T16:01:57;2.90;;;1.73;;
3589;SDS011;1809;48.470;9.226;2023-04-01T16:07:43;8.73;;;4.03;;
3589;SDS011;1809;48.470;9.226;2023-04-01T16:10:22;2.60;;;1.30;;
3589;SDS011;1809;48.470;9.226;2023-04-01T16:23:20;1.30;;;1.20;;
3589;SDS011;1809;48.470;9.226;2023-04-01T16:29:12;1.73;;;1.60;;
3589;SDS011;1809;48.470;9.226;2023-04-01T16:34:13;2.00;;;0.90;;
3589;SDS011;1809;48.470;9.226;2023-04-01T16:36:45;2.50;;;1.30;;
3589;SDS011;1809;48.470;9.226;2023-04-01T16:44:44;1.63;;;0.80;;
3589;SDS011;1809;48.470;9.226;2023-04-01T16:47:17;1.10;;;1.10;;
3589;SDS011;1809;48.470;9.226;2023-04-01T16:49:46;0.70;;;0.70;;
3589;SDS011;1809;48.470;9.226;2023-04-01T16:52:22;0.60;;;0.60;;
3589;SDS011;1809;48.470;9.226;2023-04-01T17:00:26;1.33;;;1.10;;
3589;SDS011;1809;48.470;9.226;2023-04-01T17:02:57;0.93;;;0.80;;
3589;SDS011;1809;48.470;9.226;2023-04-01T17:08:18;0.60;;;0.60;;
3589;SDS011;1809;48.470;9.226;2023-04-01T17:11:42;0.80;;;0.80;;
3589;SDS011;1809;48.470;9.226;2023-04-01T17:24:20;0.97;;;0.97;;
3589;SDS011;1809;48.470;9.226;2023-04-01T17:27:15;1.00;;;1.00;;
3589;SDS011;1809;48.470;9.226;2023-04-01T17:29:59;2.47;;;0.90;;
3589;SDS011;1809;48.470;9.226;2023-04-01T17:32:47;0.97;;;0.80;;
3589;SDS011;1809;48.470;9.226;2023-04-01T17:40:50;1.33;;;0.87;;
3589;SDS011;1809;48.470;9.226;2023-04-01T17:46:26;1.17;;;0.80;;
3589;SDS011;1809;48.470;9.226;2023-04-01T17:49:23;2.70;;;0.90;;
3589;SDS011;1809;48.470;9.226;2023-04-01T17:57:49;2.80;;;2.20;;
3589;SDS011;1809;48.470;9.226;2023-04-01T18:03:03;1.60;;;1.50;;
3589;SDS011;1809;48.470;9.226;2023-04-01T18:08:19;0.70;;;0.70;;
3589;SDS011;1809;48.470;9.226;2023-04-01T18:11:10;2.40;;;0.63;;
3589;SDS011;1809;48.470;9.226;2023-04-01T18:16:52;0.70;;;0.60;;
3589;SDS011;1809;48.470;9.226;2023-04-01T18:21:53;2.00;;;0.60;;
3589;SDS011;1809;48.470;9.226;2023-04-01T18:24:42;0.90;;;0.80;;
3589;SDS011;1809;48.470;9.226;2023-04-01T18:32:27;0.70;;;0.70;;
3589;SDS011;1809;48.470;9.226;2023-04-01T18:37:55;2.03;;;0.70;;
3589;SDS011;1809;48.470;9.226;2023-04-01T18:40:47;0.50;;;0.50;;
3589;SDS011;1809;48.470;9.226;2023-04-01T18:43:38;1.63;;;0.80;;
3589;SDS011;1809;48.470;9.226;2023-04-01T18:46:20;0.60;;;0.60;;
3589;SDS011;1809;48.470;9.226;2023-04-01T18:49:16;1.20;;;0.80;;
3589;SDS011;1809;48.470;9.226;2023-04-01T18:51:59;0.80;;;0.80;;
3589;SDS011;1809;48.470;9.226;2023-04-01T18:54:42;0.90;;;0.90;;
3589;SDS011;1809;48.470;9.226;2023-04-01T18:57:47;0.70;;;0.70;;
3589;SDS011;1809;48.470;9.226;2023-04-01T19:00:20;1.53;;;0.60;;
3589;SDS011;1809;48.470;9.226;2023-04-01T19:02:55;1.20;;;0.90;;
3589;SDS011;1809;48.470;9.226;2023-04-01T19:05:41;0.90;;;0.70;;
3589;SDS011;1809;48.470;9.226;2023-04-01T19:08:17;0.80;;;0.80;;
3589;SDS011;1809;48.470;9.226;2023-04-01T19:16:30;1.43;;;0.93;;
3589;SDS011;1809;48.470;9.226;2023-04-01T19:19:07;1.67;;;1.57;;
3589;SDS011;1809;48.470;9.226;2023-04-01T19:26:45;0.70;;;0.70;;
3589;SDS011;1809;48.470;9.226;2023-04-01T19:29:21;1.93;;;0.77;;
3589;SDS011;1809;48.470;9.226;2023-04-01T19:34:57;0.60;;;0.60;;
3589;SDS011;1809;48.470;9.226;2023-04-01T19:37:32;1.33;;;0.87;;
3589;SDS011;1809;48.470;9.226;2023-04-01T19:48:13;1.40;;;0.97;;
3589;SDS011;1809;48.470;9.226;2023-04-01T19:51:07;4.40;;;1.40;;
3589;SDS011;1809;48.470;9.226;2023-04-01T19:56:23;1.77;;;1.40;;
3589;SDS011;1809;48.470;9.226;2023-04-01T19:59:05;1.07;;;0.80;;
3589;SDS011;1809;48.470;9.226;2023-04-01T20:01:42;0.90;;;0.80;;
3589;SDS011;1809;48.470;9.226;2023-04-01T20:12:36;1.23;;;1.00;;
3589;SDS011;1809;48.470;9.226;2023-04-01T20:15:54;1.07;;;1.07;;
3589;SDS011;1809;48.470;9.226;2023-04-01T20:18:01;1.80;;;1.70;;
3589;SDS011;1809;48.470;9.226;2023-04-01T20:20:30;2.40;;;1.27;;
3589;SDS011;1809;48.470;9.226;2023-04-01T20:23:16;3.47;;;1.10;;
3589;SDS011;1809;48.470;9.226;2023-04-01T20:26:02;5.17;;;3.17;;
3589;SDS011;1809;48.470;9.226;2023-04-01T20:28:37;3.40;;;3.20;;
3589;SDS011;1809;48.470;9.226;2023-04-01T20:31:11;5.43;;;4.93;;
3589;SDS011;1809;48.470;9.226;2023-04-01T20:34:00;8.30;;;5.37;;
3589;SDS011;1809;48.470;9.226;2023-04-01T20:36:39;2.90;;;2.10;;
3589;SDS011;1809;48.470;9.226;2023-04-01T20:42:10;2.90;;;2.27;;
3589;SDS011;1809;48.470;9.226;2023-04-01T20:45:08;1.43;;;1.43;;
3589;SDS011;1809;48.470;9.226;2023-04-01T20:53:43;3.27;;;2.10;;
3589;SDS011;1809;48.470;9.226;2023-04-01T20:58:51;2.00;;;1.43;;
3589;SDS011;1809;48.470;9.226;2023-04-01T21:01:31;1.83;;;1.67;;
3589;SDS011;1809;48.470;9.226;2023-04-01T21:09:47;2.60;;;1.67;;
3589;SDS011;1809;48.470;9.226;2023-04-01T21:12:24;1.47;;;1.23;;
3589;SDS011;1809;48.470;9.226;2023-04-01T21:17:58;0.80;;;0.60;;
3589;SDS011;1809;48.470;9.226;2023-04-01T21:37:41;2.20;;;0.80;;
3589;SDS011;1809;48.470;9.226;2023-04-01T21:43:09;1.23;;;0.50;;
3589;SDS011;1809;48.470;9.226;2023-04-01T21:46:21;1.07;;;0.60;;
3589;SDS011;1809;48.470;9.226;2023-04-01T21:54:45;1.00;;;1.00;;
3589;SDS011;1809;48.470;9.226;2023-04-01T21:57:32;0.80;;;0.80;;
3589;SDS011;1809;48.470;9.226;2023-04-01T22:03:12;1.60;;;1.00;;
3589;SDS011;1809;48.470;9.226;2023-04-01T22:05:46;0.70;;;0.70;;
3589;SDS011;1809;48.470;9.226;2023-04-01T22:16:39;0.63;;;0.60;;
3589;SDS011;1809;48.470;9.226;2023-04-01T22:24:29;1.20;;;0.60;;
3589;SDS011;1809;48.470;9.226;2023-04-01T22:27:24;0.90;;;0.50;;
3589;SDS011;1809;48.470;9.226;2023-04-01T22:30:00;0.60;;;0.60;;
3589;SDS011;1809;48.470;9.226;2023-04-01T22:32:45;0.60;;;0.50;;
3589;SDS011;1809;48.470;9.226;2023-04-01T22:35:30;0.60;;;0.60;;
3589;SDS011;1809;48.470;9.226;2023-04-01T22:43:27;1.07;;;0.60;;
3589;SDS011;1809;48.470;9.226;2023-04-01T22:46:23;1.40;;;1.30;;
3589;SDS011;1809;48.470;9.226;2023-04-01T22:49:03;0.90;;;0.90;;
3589;SDS011;1809;48.470;9.226;2023-04-01T22:51:48;0.83;;;0.83;;
3589;SDS011;1809;48.470;9.226;2023-04-01T22:54:25;0.50;;;0.50;;
3589;SDS011;1809;48.470;9.226;2023-04-01T22:57:00;0.60;;;0.47;;
3589;SDS011;1809;48.470;9.226;2023-04-01T22:59:31;0.50;;;0.50;;
3589;SDS011;1809;48.470;9.226;2023-04-01T23:02:16;1.33;;;1.00;;
3589;SDS011;1809;48.470;9.226;2023-04-01T23:04:51;0.80;;;0.70;;
3589;SDS011;1809;48.470;9.226;2023-04-01T23:07:27;0.60;;;0.60;;
3589;SDS011;1809;48.470;9.226;2023-04-01T23:10:12;0.60;;;0.60;;
3589;SDS011;1809;48.470;9.226;2023-04-01T23:12:51;0.93;;;0.40;;
3589;SDS011;1809;48.470;9.226;2023-04-01T23:15:19;0.50;;;0.47;;
3589;SDS011;1809;48.470;9.226;2023-04-01T23:17:53;0.50;;;0.43;;
3589;SDS011;1809;48.470;9.226;2023-04-01T23:20:52;1.13;;;0.50;;
3589;SDS011;1809;48.470;9.226;2023-04-01T23:23:39;0.50;;;0.50;;
3589;SDS011;1809;48.470;9.226;2023-04-01T23:26:20;0.50;;;0.50;;
3589;SDS011;1809;48.470;9.226;2023-04-01T23:31:33;0.60;;;0.50;;
3589;SDS011;1809;48.470;9.226;2023-04-01T23:36:37;0.60;;;0.50;;
3589;SDS011;1809;48.470;9.226;2023-04-01T23:39:23;0.50;;;0.50;;
3589;SDS011;1809;48.470;9.226;2023-04-01T23:41:54;0.60;;;0.50;;
3589;SDS011;1809;48.470;9.226;2023-04-01T23:44:24;0.50;;;0.40;;
3589;SDS011;1809;48.470;9.226;2023-04-01T23:46:50;0.60;;;0.60;;
3589;SDS011;1809;48.470;9.226;2023-04-01T23:49:38;1.70;;;0.53;;
3589;SDS011;1809;48.470;9.226;2023-04-01T23:52:10;0.50;;;0.50;;
3589;SDS011;1809;48.470;9.226;2023-04-01T23:54:44;0.40;;;0.40;;
3589;SDS011;1809;48.470;9.226;2023-04-01T23:57:15;0.60;;;0.47;;
3589;SDS011;1809;48.470;9.226;2023-04-01T23:59:46;0.50;;;0.50;;
